Time;durP1;ratioP1;P1;durP2;ratioP2;P2;SDS_P1;SDS_P2;PMS_P1;PMS_P2;Temp;Humidity;BMP_temperature;BMP_pressure;BME280_temperature;BME280_humidity;BME280_pressure;Samples;Min_cycle;Max_cycle;Signal;HPM_P1;HPM_P2
2021/12/09 00:02:12;;;;;;;21.75;6.30;;;;;;;3.28;88.95;99954.59;5012220;28;20474;-39
2021/12/09 00:04:37;;;;;;;19.60;6.45;;;;;;;3.27;89.10;99959.06;5012098;28;20037;-39
2021/12/09 00:07:02;;;;;;;22.80;6.50;;;;;;;3.25;89.28;99958.38;5014092;28;20061;-40
2021/12/09 00:09:28;;;;;;;22.65;6.60;;;;;;;3.26;89.23;99965.38;5015868;28;20022;-40
2021/12/09 00:11:54;;;;;;;18.67;5.88;;;;;;;3.26;88.89;99956.56;5015352;28;20034;-40
2021/12/09 00:14:37;;;;;;;21.75;6.85;;;;;;;3.27;88.54;99968.88;5015719;28;20478;-41
2021/12/09 00:17:06;;;;;;;20.42;5.68;;;;;;;3.29;88.52;99967.75;5015569;28;20366;-40
2021/12/09 00:19:33;;;;;;;31.23;7.18;;;;;;;3.34;88.87;99966.41;5014882;28;20053;-41
2021/12/09 00:21:59;;;;;;;18.73;5.53;;;;;;;3.32;89.20;99971.06;5014964;28;20501;-40
2021/12/09 00:24:25;;;;;;;15.80;5.45;;;;;;;3.32;88.95;99966.59;5015401;28;20026;-40
2021/12/09 00:26:51;;;;;;;18.17;5.78;;;;;;;3.32;88.70;99965.72;5015382;28;20027;-40
2021/12/09 00:29:17;;;;;;;22.30;5.55;;;;;;;3.27;88.65;99963.56;5015155;28;20087;-40
2021/12/09 00:31:43;;;;;;;17.55;5.35;;;;;;;3.30;88.90;99966.72;5032467;28;20021;-39
2021/12/09 00:34:09;;;;;;;22.38;5.88;;;;;;;3.30;88.14;99960.59;5035216;28;20029;-41
2021/12/09 00:36:42;;;;;;;27.80;5.68;;;;;;;3.22;89.31;99965.84;5034841;28;20024;-39
2021/12/09 00:39:09;;;;;;;21.90;6.10;;;;;;;3.25;89.03;99966.38;5034879;28;20489;-40
2021/12/09 00:41:35;;;;;;;29.45;6.60;;;;;;;3.22;88.86;99965.84;5016969;28;20389;-39
2021/12/09 00:44:01;;;;;;;30.65;6.18;;;;;;;3.17;89.29;99968.97;5026111;28;20035;-40
2021/12/09 00:46:26;;;;;;;31.17;7.18;;;;;;;3.13;89.53;99972.91;5013746;28;20375;-42
2021/12/09 00:48:52;;;;;;;23.10;6.30;;;;;;;3.08;89.76;99980.53;5015184;28;20107;-39
2021/12/09 00:51:18;;;;;;;24.52;6.63;;;;;;;3.10;89.64;99973.22;5014792;28;20030;-39
2021/12/09 00:53:43;;;;;;;21.65;6.05;;;;;;;3.16;89.50;99977.09;5014728;28;20132;-40
2021/12/09 00:56:10;;;;;;;27.40;6.38;;;;;;;3.15;89.68;99976.25;5015025;28;20497;-40
2021/12/09 00:58:36;;;;;;;19.98;5.72;;;;;;;3.13;89.01;99967.59;5015103;28;20413;-39
2021/12/09 01:01:01;;;;;;;22.10;6.30;;;;;;;3.14;89.33;99968.47;5013910;28;20018;-40
2021/12/09 01:03:27;;;;;;;26.38;7.22;;;;;;;3.12;89.52;99970.44;5014744;28;20482;-40
2021/12/09 01:05:53;;;;;;;29.20;8.25;;;;;;;3.08;89.35;99976.06;5013257;28;20049;-40
2021/12/09 01:08:19;;;;;;;27.63;7.60;;;;;;;3.11;88.96;99972.25;5014703;28;20061;-41
2021/12/09 01:10:45;;;;;;;26.50;7.07;;;;;;;2.98;89.12;99971.84;5013245;28;20022;-40
2021/12/09 01:13:11;;;;;;;28.50;7.32;;;;;;;2.92;89.34;99969.78;5014508;28;20026;-40
2021/12/09 01:15:37;;;;;;;20.65;7.03;;;;;;;2.94;89.31;99967.81;5014232;28;20425;-40
2021/12/09 01:18:02;;;;;;;32.53;7.65;;;;;;;2.85;89.43;99975.72;5014306;28;20121;-40
2021/12/09 01:20:28;;;;;;;27.00;7.60;;;;;;;2.77;89.97;99970.34;5012770;28;20054;-40
2021/12/09 01:22:55;;;;;;;31.17;7.60;;;;;;;2.76;90.33;99976.63;5014369;28;20046;-40
2021/12/09 01:25:21;;;;;;;35.07;7.93;;;;;;;2.69;89.89;99983.53;5014429;28;20105;-40
2021/12/09 01:27:48;;;;;;;25.35;7.72;;;;;;;2.74;89.55;99973.28;5014485;28;20091;-40
2021/12/09 01:30:17;;;;;;;29.08;6.57;;;;;;;2.75;90.35;99972.28;5014439;28;20026;-40
2021/12/09 01:32:49;;;;;;;38.60;8.88;;;;;;;2.71;90.33;99978.06;5013328;28;20473;-39
2021/12/09 01:35:17;;;;;;;27.73;7.22;;;;;;;2.71;90.23;99973.56;5013140;28;20045;-40
2021/12/09 01:37:42;;;;;;;27.35;7.50;;;;;;;2.76;89.77;99968.63;5013954;28;20030;-40
2021/12/09 01:40:09;;;;;;;27.98;7.43;;;;;;;2.72;89.83;99975.25;5013664;28;20032;-40
2021/12/09 01:42:35;;;;;;;29.85;6.65;;;;;;;2.71;90.28;99968.25;5013587;28;20055;-40
2021/12/09 01:45:00;;;;;;;34.10;7.35;;;;;;;2.72;90.77;99975.25;5012319;28;20103;-40
2021/12/09 01:47:25;;;;;;;24.95;6.60;;;;;;;2.75;90.25;99982.09;5012443;28;20065;-41
2021/12/09 01:49:51;;;;;;;28.27;5.95;;;;;;;2.79;90.20;99986.09;5013294;28;20033;-40
2021/12/09 01:52:16;;;;;;;38.63;6.80;;;;;;;2.81;89.98;99982.31;5013583;28;20411;-41
2021/12/09 01:54:41;;;;;;;29.30;6.45;;;;;;;2.83;90.30;99979.50;5013504;28;20120;-40
2021/12/09 01:57:07;;;;;;;24.10;6.20;;;;;;;2.91;89.51;99982.22;5013818;28;20022;-41
2021/12/09 01:59:33;;;;;;;26.80;6.30;;;;;;;2.91;89.66;99992.03;5013740;28;20045;-40
2021/12/09 02:01:58;;;;;;;20.10;5.28;;;;;;;2.89;89.33;99986.84;5013783;28;20080;-40
2021/12/09 02:04:24;;;;;;;30.42;6.18;;;;;;;2.90;89.60;99987.69;5013369;28;20045;-42
2021/12/09 02:06:49;;;;;;;22.55;5.50;;;;;;;2.86;89.35;99990.66;5012196;28;20038;-40
2021/12/09 02:09:15;;;;;;;20.65;5.35;;;;;;;2.84;89.86;99984.69;5013606;28;20386;-40
2021/12/09 02:11:41;;;;;;;25.27;5.10;;;;;;;2.88;89.64;99985.19;5013481;28;20036;-41
2021/12/09 02:14:07;;;;;;;39.72;5.80;;;;;;;2.91;88.83;99981.41;5013155;28;20029;-41
2021/12/09 02:16:33;;;;;;;20.20;4.85;;;;;;;2.91;88.77;99984.06;5013080;28;20030;-40
2021/12/09 02:18:59;;;;;;;30.65;5.75;;;;;;;2.87;89.33;99988.84;5012814;28;20037;-41
2021/12/09 02:21:27;;;;;;;25.98;6.18;;;;;;;2.89;89.17;99980.72;5012535;28;20030;-40
2021/12/09 02:24:03;;;;;;;31.92;4.90;;;;;;;2.84;88.82;99984.69;5012925;28;20482;-40
2021/12/09 02:26:34;;;;;;;22.55;4.88;;;;;;;2.82;88.93;99986.66;5013240;28;20112;-41
2021/12/09 02:29:00;;;;;;;27.58;6.18;;;;;;;2.83;88.68;100004.25;5027569;28;20367;-40
2021/12/09 02:31:27;;;;;;;35.88;6.75;;;;;;;2.83;89.24;99988.31;5012809;28;20033;-40
2021/12/09 02:33:52;;;;;;;27.25;5.32;;;;;;;2.81;89.45;99986.78;5012628;28;20469;-40
2021/12/09 02:36:18;;;;;;;29.83;5.47;;;;;;;2.80;88.92;99985.13;5011536;28;20156;-40
2021/12/09 02:38:45;;;;;;;30.60;5.63;;;;;;;2.77;89.47;99977.47;5012991;28;20386;-39
2021/12/09 02:41:20;;;;;;;27.35;5.63;;;;;;;2.74;89.28;99989.25;5013168;28;20021;-40
2021/12/09 02:43:48;;;;;;;23.30;5.88;;;;;;;2.75;89.24;99985.59;5012909;28;20030;-40
2021/12/09 02:46:15;;;;;;;;;;;;;;;2.73;89.52;99979.56;5011951;28;20026;-41
2021/12/09 02:48:40;;;;;;;25.10;6.85;;;;;;;2.72;89.35;99977.91;5011803;28;19909;-40
2021/12/09 02:51:06;;;;;;;31.10;6.13;;;;;;;2.71;89.61;99984.19;5012762;28;20375;-41
2021/12/09 02:53:32;;;;;;;23.63;5.57;;;;;;;2.72;89.50;99975.25;5012402;28;20030;-41
2021/12/09 02:55:57;;;;;;;32.35;5.45;;;;;;;2.64;90.20;99978.69;5012726;28;20034;-41
2021/12/09 02:58:23;;;;;;;24.58;5.40;;;;;;;2.65;89.60;99968.88;5012561;28;20033;-40
2021/12/09 03:01:13;;;;;;;34.05;6.03;;;;;;;2.67;90.03;99982.03;5012251;28;20026;-41
2021/12/09 03:03:46;;;;;;;24.67;6.10;;;;;;;2.62;89.64;99985.97;5013293;28;20037;-41
2021/12/09 03:06:12;;;;;;;34.88;6.50;;;;;;;2.60;89.29;99973.81;5015025;28;20033;-41
2021/12/09 03:08:38;;;;;;;32.72;6.07;;;;;;;2.64;89.79;99985.81;5013139;28;20033;-40
2021/12/09 03:11:13;;;;;;;31.98;6.30;;;;;;;2.64;89.63;99981.34;5012583;28;20026;-41
2021/12/09 03:13:39;;;;;;;35.08;7.00;;;;;;;2.57;89.97;99982.09;5012421;28;20076;-40
2021/12/09 03:16:05;;;;;;;32.42;6.38;;;;;;;2.55;90.37;99976.91;5011350;28;20308;-40
2021/12/09 03:18:38;;;;;;;25.63;5.60;;;;;;;2.62;90.12;99969.19;5012108;28;20045;-41
2021/12/09 03:21:03;;;;;;;29.05;6.00;;;;;;;2.71;89.33;99978.88;5012069;28;20034;-40
2021/12/09 03:23:30;;;;;;;33.85;6.32;;;;;;;2.73;89.16;99970.78;5012007;28;20030;-40
2021/12/09 03:25:56;;;;;;;25.55;6.30;;;;;;;2.66;89.81;99988.31;5012489;28;20033;-41
2021/12/09 03:28:21;;;;;;;27.05;6.18;;;;;;;2.64;90.25;99983.16;5012555;28;20095;-41
2021/12/09 03:30:46;;;;;;;27.35;6.82;;;;;;;2.65;89.78;99987.47;5012504;28;20426;-41
2021/12/09 03:33:12;;;;;;;33.67;6.68;;;;;;;2.71;89.40;99991.34;5012049;28;20037;-40
2021/12/09 03:35:37;;;;;;;22.75;5.90;;;;;;;2.73;89.58;99992.88;5012643;28;20470;-40
2021/12/09 03:38:03;;;;;;;26.60;6.18;;;;;;;2.70;89.95;99987.03;5012000;28;20036;-40
2021/12/09 03:40:29;;;;;;;37.42;6.53;;;;;;;2.68;89.81;99997.78;5013461;28;20030;-40
2021/12/09 03:42:54;;;;;;;28.08;6.63;;;;;;;2.70;89.99;99990.50;5016156;28;20374;-40
2021/12/09 03:45:19;;;;;;;28.75;5.55;;;;;;;2.75;89.83;99990.91;5028499;28;20033;-41
2021/12/09 03:47:45;;;;;;;22.88;6.15;;;;;;;2.76;90.12;99991.72;5016335;28;20037;-41
2021/12/09 03:50:12;;;;;;;22.17;6.57;;;;;;;2.80;89.54;99990.44;5022176;28;20026;-40
2021/12/09 03:52:38;;;;;;;28.85;5.57;;;;;;;2.74;90.07;99994.56;5029527;28;20338;-40
2021/12/09 03:55:05;;;;;;;26.83;5.70;;;;;;;2.70;90.26;100000.31;5015926;28;20440;-41
2021/12/09 03:57:31;;;;;;;28.98;5.78;;;;;;;2.65;90.16;99995.44;5016106;28;20026;-41
2021/12/09 03:59:56;;;;;;;31.00;5.82;;;;;;;2.66;90.42;100006.91;5015756;28;20084;-40
2021/12/09 04:02:22;;;;;;;26.35;5.20;;;;;;;2.63;90.46;100008.03;5015084;28;20066;-40
2021/12/09 04:04:47;;;;;;;22.92;5.18;;;;;;;2.60;90.18;100003.03;5015625;28;20034;-41
2021/12/09 04:07:13;;;;;;;29.15;6.40;;;;;;;2.61;90.06;100004.72;5014625;28;20030;-40
2021/12/09 04:09:39;;;;;;;32.95;6.15;;;;;;;2.58;90.72;100005.88;5015538;28;20042;-41
2021/12/09 04:12:05;;;;;;;25.30;5.80;;;;;;;2.56;90.73;99999.84;5014177;28;20112;-40
2021/12/09 04:14:32;;;;;;;29.90;5.78;;;;;;;2.55;90.82;100000.00;5015584;28;20026;-40
2021/12/09 04:16:57;;;;;;;34.17;6.78;;;;;;;2.53;90.45;99996.69;5015369;28;20026;-41
2021/12/09 04:19:23;;;;;;;30.30;6.45;;;;;;;2.57;90.23;99990.06;5013860;28;20057;-41
2021/12/09 04:21:48;;;;;;;36.30;6.47;;;;;;;2.53;90.55;99989.53;5014951;28;20018;-40
2021/12/09 04:24:15;;;;;;;25.45;5.05;;;;;;;2.53;90.66;99988.72;5014955;28;20057;-41
2021/12/09 04:26:44;;;;;;;27.83;6.07;;;;;;;2.47;90.33;99999.91;5014861;28;20026;-40
2021/12/09 04:29:11;;;;;;;28.45;5.90;;;;;;;2.46;90.59;100004.41;5015312;28;20100;-40
2021/12/09 04:31:38;;;;;;;22.60;6.00;;;;;;;2.45;90.82;100015.16;5015521;28;20061;-40
2021/12/09 04:34:04;;;;;;;23.80;5.55;;;;;;;2.47;90.91;100007.88;5030456;28;20652;-40
2021/12/09 04:36:30;;;;;;;23.33;5.78;;;;;;;2.48;91.18;100010.41;5015112;28;20026;-41
2021/12/09 04:38:55;;;;;;;21.67;5.72;;;;;;;2.52;91.28;100016.25;5013172;28;20026;-41
2021/12/09 04:41:21;;;;;;;35.28;5.78;;;;;;;2.49;90.32;100009.41;5015093;28;20034;-41
2021/12/09 04:43:46;;;;;;;25.92;5.85;;;;;;;2.46;91.14;100017.69;5014449;28;20030;-41
2021/12/09 04:46:12;;;;;;;22.55;5.25;;;;;;;2.47;91.29;100023.81;5015244;28;20105;-40
2021/12/09 04:48:38;;;;;;;29.95;6.00;;;;;;;2.47;91.06;100031.78;5029770;28;20025;-41
2021/12/09 04:51:04;;;;;;;20.58;5.35;;;;;;;2.50;91.11;100036.78;5014442;28;20040;-40
2021/12/09 04:53:29;;;;;;;24.13;5.97;;;;;;;2.55;91.22;100034.53;5029851;28;20105;-40
2021/12/09 04:55:55;;;;;;;28.73;5.50;;;;;;;2.54;90.85;100040.84;5015169;28;20452;-40
2021/12/09 04:58:20;;;;;;;29.30;6.65;;;;;;;2.52;91.05;100037.50;5014326;28;20488;-41
2021/12/09 05:00:48;;;;;;;27.02;6.30;;;;;;;2.56;91.08;100028.25;5014703;28;20037;-41
2021/12/09 05:03:13;;;;;;;25.73;6.05;;;;;;;2.57;90.48;100033.41;5014642;28;20026;-41
2021/12/09 05:05:48;;;;;;;32.13;7.60;;;;;;;2.57;90.98;100036.06;5014860;28;20438;-41
2021/12/09 05:08:15;;;;;;;36.47;7.53;;;;;;;2.56;90.75;100037.03;5013827;28;20044;-40
2021/12/09 05:13:38;;;;;;;29.85;6.55;;;;;;;2.56;90.92;100038.88;5013651;28;20042;-40
2021/12/09 05:16:06;;;;;;;32.17;5.95;;;;;;;2.57;90.77;100037.88;5014604;28;20018;-41
2021/12/09 05:18:34;;;;;;;22.02;5.45;;;;;;;2.57;90.83;100051.16;5014352;28;20057;-41
2021/12/09 05:21:00;;;;;;;24.52;5.85;;;;;;;2.57;90.94;100045.84;5013464;28;20033;-40
2021/12/09 05:23:25;;;;;;;22.30;5.22;;;;;;;2.55;90.91;100045.16;5013642;28;20504;-41
2021/12/09 05:25:51;;;;;;;27.05;5.72;;;;;;;2.51;91.15;100047.28;5014242;28;20030;-39
2021/12/09 05:28:18;;;;;;;23.38;5.18;;;;;;;2.52;91.14;100050.78;5014020;28;20044;-40
2021/12/09 05:33:30;;;;;;;31.88;6.18;;;;;;;2.45;91.78;100031.94;5013859;28;20041;-40
2021/12/09 05:35:56;;;;;;;26.23;5.55;;;;;;;2.49;91.54;100038.63;5014187;28;20057;-40
2021/12/09 05:38:22;;;;;;;42.28;7.60;;;;;;;2.45;91.65;100041.72;5013458;28;20139;-40
2021/12/09 05:40:47;;;;;;;33.35;6.63;;;;;;;2.40;91.50;100043.00;5012428;28;20436;-40
2021/12/09 05:43:14;;;;;;;28.75;5.68;;;;;;;2.41;91.40;100042.03;5013396;28;20382;-40
2021/12/09 05:45:41;;;;;;;30.95;6.95;;;;;;;2.38;91.67;100055.59;5013413;28;20049;-40
2021/12/09 05:48:07;;;;;;;27.70;6.50;;;;;;;2.40;92.28;100056.28;5013626;28;20026;-41
2021/12/09 05:50:33;;;;;;;39.00;6.25;;;;;;;2.47;92.57;100061.00;5013825;28;20033;-41
2021/12/09 05:52:58;;;;;;;22.27;5.20;;;;;;;2.52;92.37;100056.06;5010883;28;20390;-41
2021/12/09 05:55:23;;;;;;;34.00;6.22;;;;;;;2.56;92.11;100054.81;5012819;28;20030;-40
2021/12/09 05:57:49;;;;;;;30.30;4.93;;;;;;;2.60;91.46;100056.16;5012264;28;20072;-41
2021/12/09 06:00:15;;;;;;;32.92;6.30;;;;;;;2.66;91.40;100057.38;5012509;28;20495;-41
2021/12/09 06:02:40;;;;;;;32.50;5.70;;;;;;;2.68;92.05;100050.94;5011501;28;20091;-40
2021/12/09 06:05:06;;;;;;;28.73;5.60;;;;;;;2.72;91.83;100065.59;5008219;28;20173;-39
2021/12/09 06:07:31;;;;;;;24.75;5.10;;;;;;;2.75;91.81;100054.66;5009122;28;20324;-40
2021/12/09 06:09:58;;;;;;;33.42;6.10;;;;;;;2.78;91.68;100057.03;5009546;28;20022;-40
2021/12/09 06:12:24;;;;;;;33.53;5.27;;;;;;;2.79;91.68;100064.03;5009474;28;20030;-41
2021/12/09 06:14:49;;;;;;;32.47;6.82;;;;;;;2.86;91.41;100061.59;5009415;28;20129;-39
2021/12/09 06:17:14;;;;;;;21.20;5.03;;;;;;;2.88;91.53;100069.41;5010473;28;20536;-41
2021/12/09 06:19:40;;;;;;;28.70;6.85;;;;;;;2.86;91.39;100061.59;5011293;28;20046;-41
2021/12/09 06:22:05;;;;;;;28.40;5.20;;;;;;;2.82;91.32;100065.53;5010827;28;20108;-41
2021/12/09 06:24:31;;;;;;;28.70;5.60;;;;;;;2.81;91.20;100070.00;5012470;28;20471;-41
2021/12/09 06:26:56;;;;;;;24.77;5.38;;;;;;;2.79;91.96;100072.00;5012530;28;20061;-40
2021/12/09 06:29:22;;;;;;;19.63;5.35;;;;;;;2.82;92.14;100074.34;5012349;28;20037;-40
2021/12/09 06:31:47;;;;;;;29.23;5.32;;;;;;;2.79;91.63;100072.00;5012847;28;20394;-40
2021/12/09 06:34:12;;;;;;;27.92;5.05;;;;;;;2.76;92.24;100074.94;5005926;28;20421;-40
2021/12/09 06:36:39;;;;;;;25.02;5.50;;;;;;;2.78;92.74;100067.66;5008820;28;20393;-41
2021/12/09 06:39:05;;;;;;;30.10;5.57;;;;;;;2.78;92.77;100066.81;5008146;28;20117;-40
2021/12/09 06:41:31;;;;;;;24.55;5.28;;;;;;;2.81;92.54;100069.16;5011124;28;21040;-41
2021/12/09 06:43:56;;;;;;;29.98;5.55;;;;;;;2.79;91.95;100063.16;5012143;28;20061;-41
2021/12/09 06:46:22;;;;;;;27.58;5.70;;;;;;;2.77;92.62;100059.84;5011842;28;20076;-41
2021/12/09 06:48:47;;;;;;;28.50;5.80;;;;;;;2.76;92.54;100051.00;5011850;28;20485;-40
2021/12/09 06:51:13;;;;;;;25.73;5.25;;;;;;;2.74;92.83;100063.63;5009630;28;20037;-40
2021/12/09 06:53:38;;;;;;;21.58;5.25;;;;;;;2.72;92.64;100064.78;5011613;28;20034;-41
2021/12/09 06:56:05;;;;;;;21.02;5.03;;;;;;;2.69;93.59;100057.94;5010974;28;20544;-41
2021/12/09 06:58:30;;;;;;;17.48;5.05;;;;;;;2.69;93.62;100059.75;5009410;28;20603;-41
2021/12/09 07:00:56;;;;;;;23.40;5.57;;;;;;;2.71;93.54;100063.09;5010271;28;20017;-41
2021/12/09 07:03:22;;;;;;;22.30;5.25;;;;;;;2.72;93.16;100068.25;5006354;28;20042;-42
2021/12/09 07:05:52;;;;;;;35.60;5.70;;;;;;;2.76;93.17;100064.28;5009488;28;20104;-40
2021/12/09 07:08:19;;;;;;;22.35;5.18;;;;;;;2.78;93.99;100070.31;5013221;28;20030;-39
2021/12/09 07:10:45;;;;;;;31.48;6.05;;;;;;;2.83;93.74;100072.53;5011547;28;20041;-40
2021/12/09 07:13:10;;;;;;;22.42;4.90;;;;;;;2.90;93.61;100075.38;5031117;28;20036;-41
2021/12/09 07:15:36;;;;;;;27.73;5.57;;;;;;;2.93;93.56;100077.78;5031829;28;20100;-41
2021/12/09 07:18:02;;;;;;;18.75;5.72;;;;;;;2.94;93.86;100079.44;5031506;28;20451;-41
2021/12/09 07:20:27;;;;;;;24.65;5.63;;;;;;;2.95;93.78;100076.63;5026978;28;20042;-41
2021/12/09 07:22:54;;;;;;;17.83;5.07;;;;;;;2.98;93.55;100080.81;5011883;28;20036;-41
2021/12/09 07:25:21;;;;;;;32.75;6.13;;;;;;;3.00;93.41;100069.03;5010517;28;20033;-40
2021/12/09 07:27:47;;;;;;;19.13;5.05;;;;;;;2.99;93.84;100083.31;5011771;28;20064;-40
2021/12/09 07:30:14;;;;;;;29.25;6.00;;;;;;;3.03;93.42;100089.16;5010690;28;20053;-39
2021/12/09 07:32:39;;;;;;;20.83;5.40;;;;;;;3.06;93.56;100083.53;5007627;28;20068;-41
2021/12/09 07:35:07;;;;;;;29.83;6.65;;;;;;;3.07;93.40;100085.22;5011480;28;20385;-41
2021/12/09 07:37:33;;;;;;;27.83;5.53;;;;;;;3.08;93.47;100089.53;5011087;28;20144;-41
2021/12/09 07:39:59;;;;;;;22.75;5.97;;;;;;;3.10;94.00;100084.91;5011486;28;20034;-40
2021/12/09 07:42:24;;;;;;;19.60;6.10;;;;;;;3.14;93.84;100090.75;5010506;28;20018;-40
2021/12/09 07:44:50;;;;;;;22.30;5.85;;;;;;;3.18;93.45;100103.56;5011435;28;20038;-40
2021/12/09 07:47:17;;;;;;;24.83;6.40;;;;;;;3.22;93.22;100104.97;5011478;28;20070;-40
2021/12/09 07:49:43;;;;;;;21.88;7.13;;;;;;;3.25;92.84;100101.16;5010958;28;20505;-40
2021/12/09 07:52:08;;;;;;;27.10;7.40;;;;;;;3.28;93.28;100114.97;5010866;28;20026;-41
2021/12/09 07:54:34;;;;;;;24.77;7.40;;;;;;;3.29;93.06;100108.69;5011117;28;20030;-41
2021/12/09 07:56:59;;;;;;;28.30;8.07;;;;;;;3.33;93.48;100111.03;5011806;28;20493;-39
2021/12/09 07:59:26;;;;;;;20.55;7.97;;;;;;;3.35;93.09;100115.22;5012316;28;20030;-40
2021/12/09 08:01:51;;;;;;;22.23;7.63;;;;;;;3.41;92.70;100119.09;5011185;28;20022;-39
2021/12/09 08:04:17;;;;;;;24.85;7.63;;;;;;;3.41;93.09;100119.09;5009446;28;20084;-39
2021/12/09 08:06:42;;;;;;;32.42;7.90;;;;;;;3.43;93.26;100123.25;5010489;28;20026;-41
2021/12/09 08:09:08;;;;;;;25.67;8.10;;;;;;;3.44;93.46;100110.78;5010034;28;20141;-42
2021/12/09 08:11:37;;;;;;;20.58;8.43;;;;;;;3.50;93.11;100112.81;5011047;28;20022;-41
2021/12/09 08:14:06;;;;;;;21.00;8.00;;;;;;;3.58;93.41;100120.91;5011779;28;20030;-41
2021/12/09 08:16:37;;;;;;;29.20;9.20;;;;;;;3.56;93.60;100117.53;5011362;28;20029;-41
2021/12/09 08:19:06;;;;;;;23.92;9.30;;;;;;;3.54;93.42;100124.84;5011939;28;20046;-41
2021/12/09 08:21:35;;;;;;;23.67;9.45;;;;;;;3.54;93.82;100124.84;5011343;28;20041;-41
2021/12/09 08:24:01;;;;;;;25.00;9.20;;;;;;;3.57;94.03;100126.34;5010484;28;20032;-39
2021/12/09 08:26:26;;;;;;;24.27;9.57;;;;;;;3.58;93.63;100128.88;5011867;28;20041;-41
2021/12/09 08:28:52;;;;;;;22.63;10.05;;;;;;;3.54;93.67;100138.16;5014954;28;20033;-39
2021/12/09 08:31:17;;;;;;;26.55;10.10;;;;;;;3.57;93.58;100123.69;5014562;28;20262;-40
2021/12/09 08:33:43;;;;;;;20.58;10.10;;;;;;;3.59;93.95;100122.56;5014565;28;20060;-40
2021/12/09 08:36:08;;;;;;;32.40;10.32;;;;;;;3.63;93.76;100121.25;5014573;28;20022;-40
2021/12/09 08:38:34;;;;;;;36.03;11.25;;;;;;;3.65;93.35;100132.56;5014114;28;20030;-40
2021/12/09 08:41:01;;;;;;;28.35;11.27;;;;;;;3.70;93.61;100124.13;5014004;28;20030;-42
2021/12/09 08:43:27;;;;;;;31.55;10.45;;;;;;;3.72;93.86;100128.31;5014386;28;20104;-41
2021/12/09 08:45:53;;;;;;;34.35;10.80;;;;;;;3.73;93.77;100129.97;5014691;28;20030;-40
2021/12/09 08:48:19;;;;;;;31.77;11.68;;;;;;;3.77;93.75;100135.00;5029184;28;20408;-40
2021/12/09 08:50:45;;;;;;;28.23;11.10;;;;;;;3.76;93.35;100133.31;5028128;28;20054;-40
2021/12/09 08:53:14;;;;;;;26.95;10.63;;;;;;;3.72;93.97;100133.63;5013487;28;20054;-40
2021/12/09 08:55:40;;;;;;;32.72;11.70;;;;;;;3.73;93.90;100137.94;5014512;28;20029;-41
2021/12/09 08:58:07;;;;;;;30.67;12.05;;;;;;;3.76;93.76;100143.97;5014371;28;20080;-41
2021/12/09 09:00:33;;;;;;;34.20;12.73;;;;;;;3.76;93.52;100133.31;5012538;28;20118;-41
2021/12/09 09:03:00;;;;;;;36.28;13.27;;;;;;;3.78;94.04;100136.66;5014473;28;20018;-41
2021/12/09 09:05:26;;;;;;;36.38;13.15;;;;;;;3.76;93.75;100133.31;5010093;28;20124;-41
2021/12/09 09:07:51;;;;;;;35.83;12.77;;;;;;;3.78;94.40;100129.50;5012713;28;20075;-41
2021/12/09 09:10:20;;;;;;;40.67;13.60;;;;;;;3.82;94.51;100125.56;5014115;28;20109;-41
2021/12/09 09:12:46;;;;;;;30.13;12.70;;;;;;;3.85;94.47;100127.06;5013613;28;20168;-42
2021/12/09 09:15:13;;;;;;;35.63;12.75;;;;;;;3.94;93.79;100131.44;5013143;28;20034;-41
2021/12/09 09:17:39;;;;;;;36.28;12.95;;;;;;;3.92;93.75;100133.41;5013834;28;20053;-41
2021/12/09 09:20:07;;;;;;;38.17;15.60;;;;;;;3.95;93.97;100138.47;5013512;28;20423;-41
2021/12/09 09:22:32;;;;;;;36.92;14.02;;;;;;;3.91;94.06;100147.75;5013980;28;20034;-41
2021/12/09 09:24:57;;;;;;;32.85;14.43;;;;;;;3.86;94.42;100152.69;5012379;28;20101;-41
2021/12/09 09:27:23;;;;;;;39.47;14.10;;;;;;;3.87;94.28;100151.69;5012028;28;20495;-42
2021/12/09 09:29:48;;;;;;;35.38;14.50;;;;;;;3.89;94.49;100155.03;5014553;28;20029;-41
2021/12/09 09:32:14;;;;;;;32.47;14.07;;;;;;;4.00;94.21;100149.44;5014274;28;20109;-41
2021/12/09 09:34:40;;;;;;;29.30;13.65;;;;;;;3.96;94.05;100153.44;5012163;28;20092;-43
2021/12/09 09:37:06;;;;;;;43.55;14.70;;;;;;;3.99;94.42;100153.13;5013378;28;20021;-41
2021/12/09 09:39:32;;;;;;;39.85;14.30;;;;;;;4.06;94.02;100148.00;5013232;28;20032;-42
2021/12/09 09:42:35;;;;;;;35.15;14.85;;;;;;;4.15;94.21;100147.06;5014258;28;20094;-42
2021/12/09 09:44:56;;;;;;;32.22;13.52;;;;;;;4.20;93.89;100151.91;5012666;28;20122;-41
2021/12/09 09:47:23;;;;;;;27.90;12.73;;;;;;;4.27;93.85;100159.13;5009499;28;20030;-41
2021/12/09 09:49:48;;;;;;;32.85;12.80;;;;;;;4.30;93.58;100163.31;5012920;28;20464;-41
2021/12/09 09:52:14;;;;;;;32.58;12.70;;;;;;;4.27;93.12;100158.28;5012538;28;20030;-42
2021/12/09 09:54:40;;;;;;;30.42;12.55;;;;;;;4.27;93.36;100163.63;5013478;28;20045;-41
2021/12/09 09:57:10;;;;;;;39.22;13.10;;;;;;;4.20;93.76;100168.72;5013470;28;20022;-41
2021/12/09 09:59:36;;;;;;;28.88;11.57;;;;;;;4.27;93.33;100166.28;5013849;28;20026;-41
2021/12/09 10:02:03;;;;;;;25.17;11.90;;;;;;;4.26;93.91;100153.94;5012374;28;20029;-41
2021/12/09 10:04:36;;;;;;;37.65;12.27;;;;;;;4.21;93.47;100159.72;5010841;28;20037;-41
2021/12/09 10:07:03;;;;;;;27.95;11.63;;;;;;;4.21;94.08;100167.72;5013045;28;20383;-42
2021/12/09 10:09:29;;;;;;;25.25;11.40;;;;;;;4.25;93.47;100173.59;5013413;28;20038;-41
2021/12/09 10:11:59;;;;;;;32.33;11.95;;;;;;;4.22;94.39;100166.75;5012816;28;20390;-41
2021/12/09 10:14:27;;;;;;;33.85;12.05;;;;;;;4.22;94.52;100166.75;5011867;28;20120;-41
2021/12/09 10:17:11;;;;;;;25.60;11.75;;;;;;;4.16;94.68;100162.88;5012494;28;20041;-41
2021/12/09 10:19:48;;;;;;;34.47;13.63;;;;;;;4.26;95.11;100161.94;4993527;28;20081;-40
2021/12/09 10:22:16;;;;;;;32.15;12.30;;;;;;;4.28;94.87;100157.28;5004378;28;20041;-42
2021/12/09 10:24:44;;;;;;;30.13;11.50;;;;;;;4.34;94.90;100157.47;5012417;28;20114;-42
2021/12/09 10:27:18;;;;;;;27.58;12.57;;;;;;;4.42;94.70;100156.69;5012941;28;20034;-42
2021/12/09 10:29:46;;;;;;;27.95;12.18;;;;;;;4.46;94.70;100158.06;5014153;28;20541;-41
2021/12/09 10:32:19;;;;;;;30.63;11.93;;;;;;;4.56;94.67;100171.25;5015487;28;20033;-41
2021/12/09 10:34:47;;;;;;;32.70;11.70;;;;;;;4.53;94.32;100163.56;5012496;28;20030;-43
2021/12/09 10:37:22;;;;;;;26.63;11.80;;;;;;;4.59;94.08;100158.44;5012774;28;20112;-42
2021/12/09 10:39:51;;;;;;;33.95;10.77;;;;;;;4.53;94.17;100159.09;5012572;28;20030;-42
2021/12/09 10:42:28;;;;;;;25.83;11.13;;;;;;;4.49;94.03;100151.56;5012429;28;20038;-42
2021/12/09 10:45:04;;;;;;;24.63;11.30;;;;;;;4.56;94.32;100163.28;5010806;28;20404;-42
2021/12/09 10:51:26;;;;;;;33.53;12.23;;;;;;;4.52;93.23;100151.25;5010024;28;20185;-42
2021/12/09 10:55:51;;;;;;;27.13;12.90;;;;;;;4.50;93.38;100140.75;5010754;28;20034;-42
2021/12/09 10:58:19;;;;;;;26.10;12.65;;;;;;;4.42;93.82;100151.34;5018527;28;20446;-42
2021/12/09 11:00:54;;;;;;;34.03;13.13;;;;;;;4.46;93.77;100136.72;5011886;28;20026;-41
2021/12/09 11:03:36;;;;;;;34.17;13.48;;;;;;;4.49;94.04;100146.25;5012152;28;20109;-41
2021/12/09 11:06:06;;;;;;;26.80;13.23;;;;;;;4.47;94.35;100142.91;5010418;28;20034;-42
2021/12/09 11:08:36;;;;;;;31.25;13.63;;;;;;;4.50;94.55;100153.22;5007648;28;20026;-42
2021/12/09 11:11:14;;;;;;;32.72;14.43;;;;;;;4.45;94.48;100140.41;5009343;28;20029;-43
2021/12/09 11:13:56;;;;;;;39.72;15.70;;;;;;;4.47;94.54;100134.91;5010989;28;20041;-42
2021/12/09 11:16:23;;;;;;;27.40;15.00;;;;;;;4.49;95.28;100141.75;5009680;28;20121;-43
2021/12/09 11:18:49;;;;;;;30.63;14.30;;;;;;;4.54;95.39;100134.09;5012150;28;20038;-41
2021/12/09 11:21:29;;;;;;;33.80;14.57;;;;;;;4.57;94.33;100143.59;5015121;28;20029;-42
2021/12/09 11:24:08;;;;;;;35.50;16.10;;;;;;;4.53;94.34;100140.44;5013580;28;20037;-41
2021/12/09 11:27:01;;;;;;;30.13;14.75;;;;;;;4.53;94.94;100143.09;5002078;28;20033;-41
2021/12/09 11:29:29;;;;;;;38.53;15.60;;;;;;;4.59;94.85;100137.13;5009923;28;20478;-41
2021/12/09 11:32:20;;;;;;;41.38;16.08;;;;;;;4.55;95.15;100135.75;5012914;28;20499;-43
2021/12/09 11:35:10;;;;;;;38.42;17.85;;;;;;;4.59;96.28;100134.47;5010595;28;20034;-43
2021/12/09 11:37:41;;;;;;;36.42;19.45;;;;;;;4.57;96.31;100133.78;5012484;28;20029;-48
2021/12/09 11:40:07;;;;;;;43.35;18.00;;;;;;;4.58;96.85;100129.28;5012083;28;20030;-51